Time;durP1;ratioP1;P1;durP2;ratioP2;P2;SDS_P1;SDS_P2;PMS_P1;PMS_P2;Temp;Humidity;BMP_temperature;BMP_pressure;BME280_temperature;BME280_humidity;BME280_pressure;Samples;Min_cycle;Max_cycle;Signal;HPM_P1;HPM_P2
2022/09/20 00:00:45;;;;;;;6.75;3.03;;;;;;;11.02;75.52;100819.84;5133475;27;20055;-61
2022/09/20 00:03:14;;;;;;;4.75;2.33;;;;;;;11.01;75.02;100826.56;5133445;27;20415;-60
2022/09/20 00:05:44;;;;;;;7.75;3.03;;;;;;;10.99;75.81;100826.03;5133629;28;20055;-61
2022/09/20 00:08:13;;;;;;;;;;;;;;;10.98;75.71;100830.78;5134474;28;20054;-60
2022/09/20 00:10:41;;;;;;;6.85;2.65;;;;;;;10.93;75.86;100837.28;5133402;27;19927;-60
2022/09/20 00:13:11;;;;;;;10.30;3.20;;;;;;;10.93;76.44;100822.53;5133192;27;20066;-60
2022/09/20 00:15:41;;;;;;;6.55;2.70;;;;;;;10.98;76.36;100830.78;5133701;27;20062;-61
2022/09/20 00:18:13;;;;;;;7.75;2.97;;;;;;;11.01;76.37;100832.13;5133493;27;20059;-60
2022/09/20 00:20:45;;;;;;;5.15;2.55;;;;;;;11.02;76.40;100828.19;5153793;27;20494;-60
2022/09/20 00:23:14;;;;;;;11.48;3.05;;;;;;;11.01;76.38;100830.16;5153920;27;20058;-60
2022/09/20 00:25:42;;;;;;;6.68;2.90;;;;;;;11.06;76.47;100835.63;5154066;27;20051;-60
2022/09/20 00:28:11;;;;;;;6.45;3.03;;;;;;;11.09;76.25;100828.63;5136562;27;20055;-60
2022/09/20 00:30:42;;;;;;;8.27;2.90;;;;;;;11.12;76.14;100833.59;5132958;28;20051;-60
2022/09/20 00:33:09;;;;;;;8.30;3.20;;;;;;;11.14;76.58;100826.56;5133356;28;20051;-60
2022/09/20 00:35:48;;;;;;;9.23;3.20;;;;;;;11.20;75.75;100832.88;5132890;28;20491;-60
2022/09/20 00:38:19;;;;;;;10.30;3.65;;;;;;;11.21;76.23;100834.50;5142941;27;20054;-61
2022/09/20 00:40:47;;;;;;;7.82;2.97;;;;;;;11.20;75.98;100829.25;5148987;27;20047;-60
2022/09/20 00:43:15;;;;;;;7.93;3.80;;;;;;;11.23;75.90;100832.22;5133107;28;20063;-61
2022/09/20 00:45:46;;;;;;;10.00;3.38;;;;;;;11.23;75.64;100826.66;5133019;27;20059;-61
2022/09/20 00:48:19;;;;;;;11.57;3.85;;;;;;;11.26;75.95;100831.63;5132986;28;20059;-60
2022/09/20 00:50:51;;;;;;;9.82;3.45;;;;;;;11.29;75.87;100836.56;5133181;27;20062;-60
2022/09/20 00:53:25;;;;;;;12.63;3.60;;;;;;;11.32;75.76;100832.34;5132957;28;20383;-61
2022/09/20 00:55:55;;;;;;;6.47;3.58;;;;;;;11.34;76.11;100833.69;5142061;27;20047;-61
2022/09/20 00:58:26;;;;;;;8.63;3.40;;;;;;;11.40;75.99;100828.00;5154146;27;20066;-61
2022/09/20 01:00:56;;;;;;;9.57;3.33;;;;;;;11.44;75.92;100827.06;5153387;27;20050;-61
2022/09/20 01:03:31;;;;;;;8.75;3.20;;;;;;;11.47;75.86;100831.22;5153828;27;20051;-61
2022/09/20 01:06:03;;;;;;;9.48;3.45;;;;;;;11.52;75.73;100828.28;5153425;27;20055;-61
2022/09/20 01:08:34;;;;;;;7.25;3.80;;;;;;;11.53;76.02;100829.97;5153542;27;20062;-62
2022/09/20 01:11:01;;;;;;;8.15;3.47;;;;;;;11.56;75.70;100829.31;5155531;27;20055;-60
2022/09/20 01:13:29;;;;;;;6.75;3.60;;;;;;;11.58;75.66;100827.88;5157305;27;20054;-61
2022/09/20 01:15:59;;;;;;;8.40;2.83;;;;;;;11.60;75.49;100833.13;5157440;27;20054;-61
2022/09/20 01:18:28;;;;;;;7.22;2.85;;;;;;;11.59;75.35;100817.56;5156948;27;20064;-61
2022/09/20 01:20:56;;;;;;;7.97;3.30;;;;;;;11.62;75.07;100828.06;5157279;27;20066;-61
2022/09/20 01:23:38;;;;;;;12.13;4.40;;;;;;;11.62;74.63;100830.03;5151170;27;20407;-61
2022/09/20 01:26:32;;;;;;;7.85;3.45;;;;;;;11.62;74.48;100825.28;5136608;27;20055;-61
2022/09/20 01:29:13;;;;;;;7.47;3.08;;;;;;;11.57;74.51;100831.81;5136138;27;20055;-60
2022/09/20 01:31:46;;;;;;;8.63;3.58;;;;;;;11.54;74.20;100828.81;5136107;27;20078;-61
2022/09/20 01:34:18;;;;;;;7.95;3.80;;;;;;;11.52;73.90;100825.50;5136015;27;20499;-60
2022/09/20 01:36:51;;;;;;;10.10;4.13;;;;;;;11.51;73.94;100826.66;5136248;27;20050;-61
2022/09/20 01:39:26;;;;;;;7.88;3.13;;;;;;;11.46;74.09;100829.53;5135988;27;20491;-61
2022/09/20 01:41:59;;;;;;;6.88;3.22;;;;;;;11.42;74.05;100828.50;5138633;27;20047;-61
2022/09/20 01:44:37;;;;;;;8.65;3.80;;;;;;;11.32;74.07;100835.97;5136188;27;20059;-60
2022/09/20 01:47:16;;;;;;;6.90;3.50;;;;;;;11.25;74.14;100837.50;5136114;27;20058;-61
2022/09/20 01:49:57;;;;;;;7.50;4.18;;;;;;;11.21;74.44;100837.28;5136102;27;20051;-61
2022/09/20 01:52:47;;;;;;;9.73;3.58;;;;;;;11.17;75.39;100839.03;5141127;27;20051;-60
2022/09/20 01:56:02;;;;;;;6.50;4.03;;;;;;;11.18;75.13;100837.91;5137891;27;20051;-60
2022/09/20 01:59:11;;;;;;;11.05;3.95;;;;;;;11.15;75.84;100841.34;5135867;27;20055;-61
2022/09/20 02:02:16;;;;;;;8.63;3.40;;;;;;;11.17;75.35;100842.69;5135519;27;20055;-60
2022/09/20 02:05:06;;;;;;;11.77;3.70;;;;;;;11.21;75.21;100837.28;5135777;27;20055;-60
2022/09/20 02:08:08;;;;;;;8.82;3.42;;;;;;;11.24;75.19;100833.91;5135237;27;20063;-61
2022/09/20 02:10:57;;;;;;;12.02;3.75;;;;;;;11.27;75.01;100833.25;5135558;27;20058;-61
2022/09/20 02:13:30;;;;;;;9.75;3.35;;;;;;;11.32;74.88;100837.94;5135161;27;20407;-60
2022/09/20 02:16:24;;;;;;;8.38;3.30;;;;;;;11.34;74.85;100827.28;5135545;27;20059;-60
2022/09/20 02:19:17;;;;;;;13.20;4.47;;;;;;;11.36;75.08;100833.38;5138290;27;20407;-60
2022/09/20 02:21:59;;;;;;;8.90;3.67;;;;;;;11.42;74.46;100836.88;5152941;27;20046;-60
2022/09/20 02:24:36;;;;;;;6.75;3.25;;;;;;;11.40;74.81;100837.19;5155862;27;20062;-60
2022/09/20 02:27:17;;;;;;;8.40;3.92;;;;;;;11.37;74.94;100837.81;5156184;27;20485;-56
2022/09/20 02:29:53;;;;;;;7.78;3.80;;;;;;;11.44;74.92;100826.22;5156119;27;20063;-57
2022/09/20 02:32:33;;;;;;;6.28;3.25;;;;;;;11.50;74.93;100833.34;5155508;27;20059;-57
2022/09/20 02:35:24;;;;;;;7.90;3.42;;;;;;;11.55;74.45;100827.69;5152157;27;20065;-57
2022/09/20 02:38:00;;;;;;;7.97;3.25;;;;;;;11.56;74.41;100830.13;5134632;27;20118;-57
2022/09/20 02:40:45;;;;;;;10.05;3.75;;;;;;;11.56;74.41;100832.09;5134943;27;20066;-57
2022/09/20 02:43:24;;;;;;;10.52;3.35;;;;;;;11.59;74.02;100839.88;5135166;27;20434;-57
2022/09/20 02:45:59;;;;;;;10.50;3.25;;;;;;;11.57;74.53;100842.16;5143822;27;20084;-57
2022/09/20 02:48:34;;;;;;;8.95;3.70;;;;;;;11.57;73.97;100837.38;5155352;27;20058;-57
2022/09/20 02:51:12;;;;;;;5.78;2.95;;;;;;;11.58;73.76;100838.19;5152718;27;20434;-56
2022/09/20 02:53:51;;;;;;;5.35;3.35;;;;;;;11.60;73.96;100844.31;5155497;27;20063;-57
2022/09/20 02:56:27;;;;;;;6.93;3.60;;;;;;;11.54;73.67;100849.16;5155402;27;20061;-57
2022/09/20 02:59:01;;;;;;;9.13;3.70;;;;;;;11.47;74.76;100832.03;5155500;27;20050;-57
2022/09/20 03:01:39;;;;;;;13.48;4.00;;;;;;;11.45;74.52;100842.66;5154931;27;20054;-57
2022/09/20 03:04:25;;;;;;;6.85;3.47;;;;;;;11.43;74.21;100841.34;5152926;27;20062;-57
2022/09/20 03:07:01;;;;;;;8.10;3.63;;;;;;;11.38;73.97;100840.31;5154411;27;20047;-57
2022/09/20 03:09:37;;;;;;;11.95;4.53;;;;;;;11.34;73.80;100842.06;5154429;27;20073;-58
2022/09/20 03:12:19;;;;;;;9.20;4.20;;;;;;;11.26;73.79;100844.75;5154649;27;20061;-57
2022/09/20 03:14:55;;;;;;;7.95;3.72;;;;;;;11.17;74.11;100842.69;5155163;27;20051;-57
2022/09/20 03:17:35;;;;;;;9.32;3.83;;;;;;;11.14;73.98;100840.50;5154985;27;20047;-57
2022/09/20 03:20:15;;;;;;;10.10;4.10;;;;;;;11.04;74.30;100839.88;5154584;27;20055;-57
2022/09/20 03:22:53;;;;;;;7.75;3.72;;;;;;;10.96;74.59;100842.25;5135208;27;20059;-57
2022/09/20 03:25:38;;;;;;;9.63;3.95;;;;;;;10.92;74.68;100846.78;5134168;27;20487;-57
2022/09/20 03:28:22;;;;;;;8.38;4.10;;;;;;;10.89;73.95;100844.59;5133858;27;20066;-57
2022/09/20 03:31:04;;;;;;;9.65;3.78;;;;;;;10.88;74.70;100837.38;5133850;27;20067;-57
2022/09/20 03:33:44;;;;;;;11.27;4.30;;;;;;;10.79;75.07;100835.59;5133984;27;20059;-57
2022/09/20 03:36:27;;;;;;;12.55;3.83;;;;;;;10.74;75.12;100847.69;5144107;27;20525;-57
2022/09/20 03:39:23;;;;;;;8.88;4.25;;;;;;;10.72;75.53;100836.84;5154192;27;20415;-57
2022/09/20 03:42:05;;;;;;;12.95;5.15;;;;;;;10.68;75.46;100832.19;5154513;27;20073;-57
2022/09/20 03:45:15;;;;;;;9.18;4.13;;;;;;;10.64;74.95;100833.94;5154610;27;20065;-57
2022/09/20 03:47:59;;;;;;;9.57;3.67;;;;;;;10.60;75.40;100836.50;5142299;27;20058;-56
2022/09/20 03:50:51;;;;;;;9.00;4.50;;;;;;;10.57;75.01;100842.69;5152443;27;20054;-57
2022/09/20 03:53:41;;;;;;;8.73;4.50;;;;;;;10.52;75.68;100838.03;5154723;27;20058;-56
2022/09/20 03:56:25;;;;;;;9.02;3.80;;;;;;;10.49;75.24;100835.03;5154378;27;20406;-57
2022/09/20 03:59:10;;;;;;;9.50;4.55;;;;;;;10.46;75.05;100833.69;5154527;27;20062;-57
2022/09/20 04:01:59;;;;;;;11.10;4.88;;;;;;;10.40;75.35;100832.13;5154567;27;20058;-57
2022/09/20 04:04:34;;;;;;;9.48;4.43;;;;;;;10.33;75.01;100832.50;5147892;27;20097;-57
2022/09/20 04:07:15;;;;;;;8.90;4.30;;;;;;;10.31;75.25;100834.78;5133246;27;20051;-57
2022/09/20 04:10:02;;;;;;;11.60;4.93;;;;;;;10.28;75.42;100840.06;5133233;27;20055;-56
2022/09/20 04:12:40;;;;;;;10.07;4.65;;;;;;;10.28;76.08;100840.06;5133135;28;20422;-57
2022/09/20 04:15:23;;;;;;;12.30;5.15;;;;;;;10.24;76.15;100844.59;5133218;27;20051;-56
2022/09/20 04:17:58;;;;;;;8.88;4.85;;;;;;;10.18;76.01;100840.25;5133737;27;20399;-57
2022/09/20 04:20:36;;;;;;;11.40;4.90;;;;;;;10.16;75.89;100848.88;5153279;27;20054;-56
2022/09/20 04:23:15;;;;;;;10.35;4.63;;;;;;;10.15;76.33;100847.25;5154023;27;20055;-56
2022/09/20 04:25:48;;;;;;;11.07;4.65;;;;;;;10.11;76.24;100843.41;5153895;27;20055;-57
2022/09/20 04:28:23;;;;;;;10.02;4.68;;;;;;;10.10;76.23;100842.59;5153754;27;20415;-56
2022/09/20 04:30:56;;;;;;;10.55;4.60;;;;;;;10.05;76.87;100844.63;5153722;27;20422;-57
2022/09/20 04:33:29;;;;;;;9.50;5.18;;;;;;;9.97;77.18;100851.69;5151509;27;20054;-56
2022/09/20 04:39:02;;;;;;;11.55;5.10;;;;;;;9.95;77.40;100853.94;5154231;27;20054;-57
2022/09/20 04:42:02;;;;;;;10.02;5.30;;;;;;;9.93;77.72;100851.47;5153501;27;20062;-57
2022/09/20 04:44:45;;;;;;;;;;;;;;;9.92;78.22;100852.59;5138491;27;20051;-57
2022/09/20 04:48:00;;;;;;;9.05;4.68;;;;;;;9.96;78.44;100855.59;5154326;27;19934;-57
2022/09/20 04:50:58;;;;;;;14.40;5.40;;;;;;;9.99;78.42;100863.34;5065327;28;20505;-56
2022/09/20 04:54:07;;;;;;;9.60;5.50;;;;;;;10.03;78.28;100867.19;5052841;28;20163;-57
2022/09/20 04:56:51;;;;;;;9.70;5.20;;;;;;;10.09;78.45;100860.41;5040363;28;20049;-56
2022/09/20 04:59:34;;;;;;;12.20;5.57;;;;;;;10.13;78.27;100861.47;5132819;27;20063;-56
2022/09/20 05:02:38;;;;;;;10.98;5.47;;;;;;;10.21;78.63;100867.50;5141998;27;20054;-57
2022/09/20 05:05:51;;;;;;;10.77;6.03;;;;;;;10.28;78.66;100867.91;5138429;27;20055;-57
2022/09/20 05:08:49;;;;;;;11.63;6.53;;;;;;;10.34;78.35;100866.75;5141851;27;20490;-57
2022/09/20 05:11:42;;;;;;;9.60;5.40;;;;;;;10.40;78.41;100875.84;5140735;27;20062;-57
2022/09/20 05:14:46;;;;;;;13.00;6.07;;;;;;;10.49;77.71;100874.00;5145640;27;20067;-57
2022/09/20 05:17:24;;;;;;;14.27;6.40;;;;;;;10.54;78.34;100873.91;5107488;27;20487;-56
2022/09/20 05:20:23;;;;;;;11.35;6.15;;;;;;;10.64;78.79;100870.97;5145375;27;20411;-56
2022/09/20 05:23:14;;;;;;;10.32;5.70;;;;;;;10.73;78.50;100868.28;5141694;27;20078;-57
2022/09/20 05:25:55;;;;;;;11.65;5.13;;;;;;;10.80;78.11;100867.94;5136398;27;20063;-57
2022/09/20 05:28:29;;;;;;;12.45;5.88;;;;;;;10.87;77.87;100873.91;5135964;27;20517;-57
2022/09/20 05:31:01;;;;;;;13.30;6.00;;;;;;;10.94;77.81;100872.38;5136020;27;20415;-57
2022/09/20 05:33:37;;;;;;;9.38;5.72;;;;;;;11.03;77.12;100877.25;5136035;27;20463;-57
2022/09/20 05:36:13;;;;;;;9.77;5.28;;;;;;;11.09;77.06;100876.03;5155728;27;20061;-57
2022/09/20 05:38:47;;;;;;;13.80;6.10;;;;;;;11.15;76.99;100872.84;5157046;27;20063;-57
2022/09/20 05:41:23;;;;;;;14.63;6.40;;;;;;;11.24;76.92;100883.28;5156596;27;20402;-57
2022/09/20 05:43:59;;;;;;;12.30;6.07;;;;;;;11.31;76.78;100878.91;5135683;27;20411;-57
2022/09/20 05:46:36;;;;;;;10.32;5.85;;;;;;;11.37;76.98;100882.44;5136089;27;20058;-57
2022/09/20 05:49:16;;;;;;;10.88;6.63;;;;;;;11.46;77.25;100879.75;5154499;27;20426;-57
2022/09/20 05:52:07;;;;;;;9.68;6.25;;;;;;;11.51;76.61;100888.84;5149591;27;20051;-57
2022/09/20 05:54:57;;;;;;;12.85;6.32;;;;;;;11.54;76.16;100887.41;5143405;27;20059;-57
2022/09/20 05:57:38;;;;;;;14.98;6.85;;;;;;;11.65;76.60;100882.41;5136942;27;20058;-57
2022/09/20 06:00:12;;;;;;;9.88;5.70;;;;;;;11.75;75.82;100882.19;5156047;27;20410;-57
2022/09/20 06:02:48;;;;;;;10.98;6.38;;;;;;;11.83;75.36;100900.19;5140049;27;20060;-56
2022/09/20 06:05:23;;;;;;;10.52;5.60;;;;;;;11.92;75.51;100892.75;5138859;27;20058;-57
2022/09/20 06:08:17;;;;;;;11.45;6.68;;;;;;;11.98;75.38;100891.50;5156051;27;20513;-57
2022/09/20 06:11:00;;;;;;;14.90;6.38;;;;;;;12.07;75.09;100894.38;5136960;27;20415;-57
2022/09/20 06:13:43;;;;;;;12.90;6.43;;;;;;;12.03;74.94;100902.53;5133826;27;20058;-57
2022/09/20 06:16:17;;;;;;;15.07;7.35;;;;;;;12.13;74.11;100907.06;5137888;27;20059;-57
2022/09/20 06:18:50;;;;;;;12.32;6.75;;;;;;;12.20;74.01;100901.91;5135993;27;20051;-57
2022/09/20 06:21:31;;;;;;;13.57;6.45;;;;;;;12.26;74.29;100902.59;5135973;27;20415;-56
2022/09/20 06:24:01;;;;;;;12.82;7.53;;;;;;;12.34;74.13;100902.66;5144050;27;20513;-57
2022/09/20 06:26:34;;;;;;;12.95;7.97;;;;;;;12.43;74.72;100908.34;5136503;27;20491;-57
2022/09/20 06:29:05;;;;;;;14.35;7.60;;;;;;;12.54;74.32;100903.31;5140774;27;20058;-57
2022/09/20 06:31:33;;;;;;;11.68;6.60;;;;;;;12.60;74.20;100907.66;5137521;27;20070;-57
2022/09/20 06:34:05;;;;;;;13.93;8.15;;;;;;;12.67;73.56;100912.78;5134252;27;20434;-57
2022/09/20 06:42:28;;;;;;;14.02;7.72;;;;;;;12.90;73.86;100910.81;5058401;28;20395;-58
2022/09/20 06:44:55;;;;;;;14.65;7.80;;;;;;;13.00;72.37;100910.53;5059586;28;20406;-58
2022/09/20 06:47:24;;;;;;;10.27;7.18;;;;;;;13.16;72.88;100906.16;5095143;27;20057;-58
2022/09/20 06:49:52;;;;;;;9.18;6.50;;;;;;;13.33;72.79;100913.88;5142159;27;20070;-58
2022/09/20 06:52:21;;;;;;;12.90;8.20;;;;;;;13.43;72.14;100911.94;5143762;27;20055;-59
2022/09/20 06:54:53;;;;;;;15.63;8.43;;;;;;;13.53;71.43;100912.47;5142258;27;20055;-59
2022/09/20 06:57:24;;;;;;;11.80;7.10;;;;;;;13.66;71.75;100910.69;5145949;27;20054;-58
2022/09/20 06:59:51;;;;;;;13.93;7.65;;;;;;;13.76;71.85;100921.59;5148246;27;20059;-59
2022/09/20 07:02:18;;;;;;;11.98;6.93;;;;;;;13.93;71.14;100911.59;5150275;27;20403;-58
2022/09/20 07:04:45;;;;;;;16.40;8.00;;;;;;;13.88;69.08;100917.31;5150482;27;20054;-60
2022/09/20 07:07:16;;;;;;;14.75;9.15;;;;;;;13.89;70.39;100919.81;5145898;27;20058;-58
2022/09/20 07:09:43;;;;;;;13.43;8.00;;;;;;;14.09;70.22;100929.56;5148510;27;20058;-59
2022/09/20 07:12:12;;;;;;;11.45;6.93;;;;;;;14.23;69.16;100931.41;5146292;27;20058;-59
2022/09/20 07:14:39;;;;;;;17.97;7.80;;;;;;;14.35;68.79;100928.78;5149490;27;20521;-59
2022/09/20 07:17:06;;;;;;;18.50;8.80;;;;;;;14.40;68.64;100932.25;5147302;27;20070;-59
2022/09/20 07:19:35;;;;;;;12.77;7.85;;;;;;;14.54;68.41;100932.06;5149361;27;20495;-59
2022/09/20 07:22:03;;;;;;;13.32;8.43;;;;;;;14.68;67.39;100931.94;5145767;27;20058;-59
2022/09/20 07:24:31;;;;;;;14.77;7.90;;;;;;;15.00;66.86;100932.56;5143624;27;20043;-59
2022/09/20 07:27:00;;;;;;;11.82;6.72;;;;;;;15.37;66.15;100938.53;5145777;27;20066;-59
2022/09/20 07:29:30;;;;;;;15.85;7.57;;;;;;;15.55;65.39;100937.31;5149111;27;20058;-59
2022/09/20 07:31:58;;;;;;;12.65;6.90;;;;;;;15.65;64.06;100938.94;5147062;27;20055;-58
2022/09/20 07:34:26;;;;;;;11.70;5.25;;;;;;;15.61;63.59;100940.78;5145401;27;20081;-59
2022/09/20 07:36:53;;;;;;;10.73;6.35;;;;;;;15.72;63.48;100933.63;5136581;27;20066;-60
2022/09/20 07:39:20;;;;;;;10.32;5.35;;;;;;;15.83;62.73;100940.53;5146316;27;20507;-60
2022/09/20 07:41:50;;;;;;;10.85;5.95;;;;;;;16.15;62.63;100941.00;5142573;27;20054;-60
2022/09/20 07:44:23;;;;;;;9.15;5.30;;;;;;;16.42;61.76;100936.00;5141865;27;20061;-59
2022/09/20 07:46:54;;;;;;;9.27;5.28;;;;;;;16.93;60.79;100941.56;5141040;27;20055;-60
2022/09/20 07:49:22;;;;;;;10.60;5.63;;;;;;;18.62;56.40;100931.84;5145409;27;20503;-59
2022/09/20 07:51:50;;;;;;;8.88;4.72;;;;;;;20.44;52.63;100925.63;5146828;27;20390;-60
2022/09/20 07:54:18;;;;;;;7.75;4.30;;;;;;;21.82;48.74;100928.72;5146243;27;20062;-60
2022/09/20 07:56:46;;;;;;;7.78;4.00;;;;;;;22.57;45.71;100929.00;5138712;27;20055;-60
2022/09/20 07:59:14;;;;;;;8.77;4.47;;;;;;;23.74;43.54;100930.69;5147933;27;20054;-58
2022/09/20 08:01:42;;;;;;;7.00;3.00;;;;;;;24.55;40.21;100923.16;5143718;27;20495;-59
2022/09/20 08:04:11;;;;;;;6.43;2.17;;;;;;;24.57;39.46;100932.13;5145295;27;20065;-59
2022/09/20 08:06:40;;;;;;;4.00;2.03;;;;;;;24.42;39.94;100934.06;5138041;27;20422;-59
2022/09/20 08:09:08;;;;;;;5.10;2.20;;;;;;;24.14;39.89;100929.00;5136170;27;20074;-58
2022/09/20 08:11:38;;;;;;;7.35;2.40;;;;;;;23.53;40.06;100925.66;5146103;27;20620;-59
2022/09/20 08:14:05;;;;;;;5.65;2.38;;;;;;;22.87;41.43;100933.88;5141628;27;20065;-57
2022/09/20 08:16:36;;;;;;;5.43;2.05;;;;;;;22.60;41.38;100939.63;5143367;27;20050;-57
2022/09/20 08:19:04;;;;;;;4.75;1.85;;;;;;;22.11;42.29;100946.16;5143772;27;20066;-57
2022/09/20 08:21:34;;;;;;;7.88;2.72;;;;;;;21.57;42.36;100944.50;5150494;27;20157;-58
2022/09/20 08:24:02;;;;;;;6.55;2.70;;;;;;;21.22;43.85;100943.44;5145535;27;20063;-59
2022/09/20 08:26:31;;;;;;;9.20;3.30;;;;;;;21.42;44.43;100947.09;5147161;27;20051;-59
2022/09/20 08:29:00;;;;;;;5.00;2.10;;;;;;;21.11;44.75;100938.78;5145863;27;20415;-59
2022/09/20 08:31:30;;;;;;;5.10;1.95;;;;;;;21.73;44.39;100948.00;5142936;27;20043;-59
2022/09/20 08:33:58;;;;;;;4.80;1.70;;;;;;;22.49;42.86;100950.84;5147207;27;20065;-58
2022/09/20 08:36:26;;;;;;;5.65;2.33;;;;;;;22.69;42.33;100945.81;5148146;27;20050;-58
2022/09/20 08:38:54;;;;;;;4.50;1.73;;;;;;;22.78;42.11;100941.84;5149426;27;20058;-59
2022/09/20 08:41:26;;;;;;;3.63;2.00;;;;;;;22.66;42.86;100949.44;5141403;27;20391;-59
2022/09/20 08:43:56;;;;;;;5.15;1.90;;;;;;;22.34;43.39;100936.81;5149769;27;20085;-59
2022/09/20 08:46:27;;;;;;;7.05;2.10;;;;;;;21.97;43.84;100949.63;5150413;27;20419;-59
2022/09/20 08:48:55;;;;;;;4.32;1.92;;;;;;;21.67;45.25;100943.84;5146712;27;20657;-59
2022/09/20 08:51:23;;;;;;;4.63;1.60;;;;;;;21.25;43.69;100950.34;5151163;27;20055;-58
2022/09/20 08:53:54;;;;;;;4.77;1.50;;;;;;;20.95;43.40;100945.31;5148970;27;20062;-59
2022/09/20 08:56:22;;;;;;;4.13;1.65;;;;;;;20.83;44.95;100949.16;5149651;27;20067;-59
2022/09/20 08:58:52;;;;;;;6.82;1.92;;;;;;;20.72;45.31;100950.91;5146441;27;20054;-59
2022/09/20 09:01:21;;;;;;;3.17;1.88;;;;;;;20.60;46.17;100959.56;5146520;27;20070;-59
2022/09/20 09:03:51;;;;;;;4.45;1.90;;;;;;;20.51;46.38;100950.44;5149233;27;20712;-60
2022/09/20 09:06:20;;;;;;;;;;;;;;;20.40;46.22;100964.34;5139339;27;20047;-59
2022/09/20 09:08:48;;;;;;;3.90;1.70;;;;;;;20.32;45.42;100960.53;5151015;27;19919;-59
2022/09/20 09:11:18;;;;;;;4.97;1.77;;;;;;;20.13;45.96;100969.78;5142744;27;20055;-59
2022/09/20 09:13:52;;;;;;;3.85;2.00;;;;;;;19.85;47.39;100982.06;5142319;27;20510;-59
2022/09/20 09:16:22;;;;;;;6.75;2.40;;;;;;;19.74;47.42;100975.31;5141572;27;20047;-59
2022/09/20 09:18:50;;;;;;;6.32;1.70;;;;;;;19.56;48.03;100974.00;5139181;27;20059;-59
2022/09/20 09:21:20;;;;;;;5.00;1.95;;;;;;;19.52;48.72;100973.06;5146773;27;20521;-59
2022/09/20 09:23:53;;;;;;;5.78;1.83;;;;;;;19.53;48.69;100975.56;5145144;27;20077;-60
2022/09/20 09:26:24;;;;;;;5.07;1.75;;;;;;;19.56;47.51;100980.47;5148408;27;20062;-59
2022/09/20 09:29:14;;;;;;;6.95;2.03;;;;;;;19.83;47.08;100977.94;5149221;27;20050;-59
2022/09/20 09:31:43;;;;;;;3.67;1.80;;;;;;;20.46;46.84;100977.03;5138005;27;20073;-59
2022/09/20 09:34:25;;;;;;;5.57;1.85;;;;;;;20.44;45.44;100980.22;5147222;27;20062;-58
2022/09/20 09:36:53;;;;;;;5.50;1.40;;;;;;;21.36;43.66;100979.72;5141095;27;20059;-59
2022/09/20 09:39:25;;;;;;;4.18;1.10;;;;;;;22.62;41.18;100976.97;5148242;27;20065;-59
2022/09/20 09:41:53;;;;;;;2.97;1.35;;;;;;;23.24;39.86;100978.56;5141230;27;20054;-60
2022/09/20 09:44:24;;;;;;;5.45;2.13;;;;;;;23.88;38.90;100979.22;5145874;27;20069;-60
2022/09/20 09:46:53;;;;;;;5.05;1.85;;;;;;;24.10;38.09;100970.84;5139861;27;20059;-59
2022/09/20 09:49:22;;;;;;;5.70;2.03;;;;;;;24.52;38.10;100978.06;5143514;27;20059;-59
2022/09/20 09:52:03;;;;;;;;;;;;;;;25.41;36.33;100971.09;5140213;27;20426;-60
2022/09/20 09:54:33;;;;;;;3.80;1.80;;;;;;;26.20;35.83;100974.81;5141251;27;20290;-59
2022/09/20 09:57:14;;;;;;;5.45;2.55;;;;;;;26.88;34.46;100973.88;5148283;27;20059;-59
2022/09/20 09:59:56;;;;;;;5.15;2.63;;;;;;;28.04;32.54;100969.88;5149980;27;20050;-59
2022/09/20 10:02:43;;;;;;;5.57;2.25;;;;;;;29.23;30.40;100960.78;5144069;27;20059;-59
2022/09/20 10:05:17;;;;;;;3.47;1.75;;;;;;;29.81;29.45;100957.03;5141473;27;20055;-59
2022/09/20 10:07:50;;;;;;;3.80;1.58;;;;;;;29.49;29.66;100961.22;5147558;27;20054;-59
2022/09/20 10:10:29;;;;;;;4.75;1.70;;;;;;;28.79;29.16;100961.72;5146976;27;20043;-60
2022/09/20 10:13:11;;;;;;;3.72;1.48;;;;;;;28.45;28.84;100959.63;5142611;27;20065;-59
2022/09/20 10:15:44;;;;;;;2.47;1.00;;;;;;;29.22;27.96;100956.25;5142640;27;20430;-59
2022/09/20 10:18:32;;;;;;;2.28;0.90;;;;;;;28.73;27.73;100955.66;5141792;27;20518;-59
2022/09/20 10:21:08;;;;;;;2.42;1.10;;;;;;;28.15;28.33;100955.44;5136971;27;20046;-59
2022/09/20 10:24:07;;;;;;;3.20;1.08;;;;;;;27.20;29.12;100961.44;5148505;27;20506;-60
2022/09/20 10:26:51;;;;;;;;;;;;;;;26.75;29.61;100958.38;5142968;27;20719;-59
2022/09/20 10:29:31;;;;;;;3.42;1.80;;;;;;;26.96;30.36;100963.19;5142186;27;19923;-60
2022/09/20 10:32:07;;;;;;;4.57;1.33;;;;;;;26.81;30.26;100959.59;5140603;27;20055;-60
2022/09/20 10:35:13;;;;;;;2.55;1.20;;;;;;;26.85;30.53;100960.38;5138271;27;20055;-59
2022/09/20 10:38:06;;;;;;;2.05;1.20;;;;;;;27.00;30.30;100950.50;5143853;27;20069;-59
2022/09/20 10:43:44;;;;;;;5.93;1.50;;;;;;;26.55;30.67;100958.84;5149689;27;20065;-58
2022/09/20 10:46:21;;;;;;;4.40;1.13;;;;;;;26.55;30.47;100955.19;5149595;27;20070;-59
2022/09/20 10:48:58;;;;;;;3.08;1.30;;;;;;;26.49;29.37;100951.91;5141286;27;20422;-60
2022/09/20 10:51:38;;;;;;;4.13;1.05;;;;;;;27.45;29.00;100952.75;5145004;27;20070;-59
2022/09/20 10:54:16;;;;;;;4.85;1.35;;;;;;;28.68;28.10;100945.47;5146706;27;20257;-59
2022/09/20 10:56:48;;;;;;;4.13;1.58;;;;;;;28.87;26.92;100948.91;5148689;27;20062;-59
2022/09/20 10:59:30;;;;;;;4.05;1.27;;;;;;;28.10;28.31;100953.88;5148426;27;20463;-59
2022/09/20 11:02:17;;;;;;;4.78;1.60;;;;;;;27.74;28.58;100950.47;5146280;27;20050;-59
2022/09/20 11:05:19;;;;;;;4.00;1.35;;;;;;;27.17;28.78;100953.69;5146410;27;20518;-59
2022/09/20 11:07:56;;;;;;;4.00;1.23;;;;;;;26.70;31.08;100957.59;5144243;27;20517;-58
2022/09/20 11:10:29;;;;;;;3.75;1.40;;;;;;;25.96;31.61;100950.78;5146614;27;20051;-59
2022/09/20 11:13:01;;;;;;;3.97;1.20;;;;;;;25.34;32.97;100960.50;5146328;27;20062;-59
2022/09/20 11:15:32;;;;;;;5.18;1.30;;;;;;;25.01;32.65;100958.75;5146645;27;20078;-59
2022/09/20 11:18:09;;;;;;;5.05;1.10;;;;;;;24.50;34.03;100969.09;5147340;27;20074;-58
2022/09/20 11:20:43;;;;;;;5.80;1.30;;;;;;;24.02;34.54;100960.63;5143367;27;20058;-59
2022/09/20 11:23:16;;;;;;;4.55;1.08;;;;;;;23.61;35.35;100966.34;5145980;27;20509;-59
2022/09/20 11:25:47;;;;;;;4.45;1.30;;;;;;;23.34;36.21;100969.31;5146504;27;20521;-59
2022/09/20 11:28:19;;;;;;;3.47;1.10;;;;;;;23.21;36.22;100962.28;5146465;27;20050;-58
2022/09/20 11:30:55;;;;;;;3.45;1.20;;;;;;;23.49;36.38;100961.75;5141240;27;20061;-59
2022/09/20 11:33:30;;;;;;;4.55;1.20;;;;;;;23.70;36.74;100961.94;5141612;27;20407;-58
2022/09/20 11:36:00;;;;;;;3.55;1.42;;;;;;;23.93;36.78;100960.97;5145901;27;20057;-58
2022/09/20 11:38:35;;;;;;;4.13;1.23;;;;;;;23.96;36.15;100956.50;5139134;27;20055;-59
2022/09/20 11:41:10;;;;;;;5.07;1.35;;;;;;;24.20;34.48;100960.75;5145911;27;20541;-59
2022/09/20 11:43:41;;;;;;;4.85;1.17;;;;;;;24.62;34.43;100962.25;5148726;27;20506;-59
2022/09/20 11:46:13;;;;;;;5.40;1.30;;;;;;;24.79;35.00;100960.72;5142894;27;20054;-58
2022/09/20 11:48:46;;;;;;;3.00;1.00;;;;;;;24.92;34.38;100950.56;5141550;27;20062;-59
2022/09/20 11:51:53;;;;;;;2.92;1.10;;;;;;;25.04;34.64;100961.59;5142465;27;20051;-58
2022/09/20 11:54:53;;;;;;;3.08;1.05;;;;;;;24.96;34.83;100959.16;5121342;27;20055;-59
2022/09/20 11:57:21;;;;;;;4.25;1.00;;;;;;;24.84;34.49;100954.59;5143724;27;20054;-59
2022/09/20 11:59:53;;;;;;;2.15;1.10;;;;;;;25.16;34.53;100965.28;5136868;27;20054;-59
2022/09/20 12:02:26;;;;;;;4.07;1.08;;;;;;;25.33;33.76;100958.88;5140860;27;20491;-58
2022/09/20 12:04:55;;;;;;;3.15;1.20;;;;;;;25.33;33.92;100961.72;5142919;27;20059;-58
2022/09/20 12:07:26;;;;;;;2.85;1.00;;;;;;;25.05;32.74;100954.72;5147484;27;20406;-58
2022/09/20 12:09:57;;;;;;;4.55;1.17;;;;;;;25.12;32.98;100953.91;5145263;27;20058;-60
2022/09/20 12:12:36;;;;;;;4.78;1.55;;;;;;;24.83;33.91;100953.78;5145387;27;20047;-59
2022/09/20 12:15:07;;;;;;;2.72;1.00;;;;;;;24.44;33.44;100953.56;5145432;27;20460;-58
2022/09/20 12:18:23;;;;;;;2.95;1.30;;;;;;;24.39;34.60;100948.25;5146138;27;20058;-59
2022/09/20 12:21:06;;;;;;;3.45;1.10;;;;;;;24.20;34.81;100955.88;5141826;27;20047;-59